sensor_id;sensor_type;location;lat;lon;timestamp;P1;durP1;ratioP1;P2;durP2;ratioP2
21101;SDS011;10709;49.006;12.100;2023-11-21T00:00:08;7.87;;;3.67;;
21101;SDS011;10709;49.006;12.100;2023-11-21T00:02:43;6.77;;;3.60;;
21101;SDS011;10709;49.006;12.100;2023-11-21T00:05:11;5.70;;;3.20;;
21101;SDS011;10709;49.006;12.100;2023-11-21T00:07:40;10.10;;;3.60;;
21101;SDS011;10709;49.006;12.100;2023-11-21T00:10:08;7.33;;;3.30;;
21101;SDS011;10709;49.006;12.100;2023-11-21T00:12:37;4.77;;;3.37;;
21101;SDS011;10709;49.006;12.100;2023-11-21T00:15:04;6.57;;;3.30;;
21101;SDS011;10709;49.006;12.100;2023-11-21T00:17:31;5.70;;;3.00;;
21101;SDS011;10709;49.006;12.100;2023-11-21T00:20:00;8.13;;;3.80;;
21101;SDS011;10709;49.006;12.100;2023-11-21T00:22:27;9.23;;;3.30;;
21101;SDS011;10709;49.006;12.100;2023-11-21T00:24:54;7.27;;;3.50;;
21101;SDS011;10709;49.006;12.100;2023-11-21T00:27:20;6.40;;;3.20;;
21101;SDS011;10709;49.006;12.100;2023-11-21T00:29:47;5.90;;;3.33;;
21101;SDS011;10709;49.006;12.100;2023-11-21T00:32:15;8.17;;;3.80;;
21101;SDS011;10709;49.006;12.100;2023-11-21T00:34:43;9.60;;;3.70;;
21101;SDS011;10709;49.006;12.100;2023-11-21T00:37:09;8.80;;;3.73;;
21101;SDS011;10709;49.006;12.100;2023-11-21T00:39:37;6.57;;;3.63;;
21101;SDS011;10709;49.006;12.100;2023-11-21T00:42:05;7.80;;;3.60;;
21101;SDS011;10709;49.006;12.100;2023-11-21T00:44:32;7.83;;;3.43;;
21101;SDS011;10709;49.006;12.100;2023-11-21T00:47:00;5.60;;;3.40;;
21101;SDS011;10709;49.006;12.100;2023-11-21T00:49:27;6.47;;;3.60;;
21101;SDS011;10709;49.006;12.100;2023-11-21T00:51:54;7.40;;;3.53;;
21101;SDS011;10709;49.006;12.100;2023-11-21T00:54:21;7.23;;;3.90;;
21101;SDS011;10709;49.006;12.100;2023-11-21T00:56:47;9.63;;;3.87;;
21101;SDS011;10709;49.006;12.100;2023-11-21T00:59:14;8.80;;;3.73;;
21101;SDS011;10709;49.006;12.100;2023-11-21T01:01:41;8.77;;;3.70;;
21101;SDS011;10709;49.006;12.100;2023-11-21T01:04:11;7.50;;;3.57;;
21101;SDS011;10709;49.006;12.100;2023-11-21T01:06:38;10.93;;;4.17;;
21101;SDS011;10709;49.006;12.100;2023-11-21T01:09:05;9.90;;;4.60;;
21101;SDS011;10709;49.006;12.100;2023-11-21T01:11:35;9.47;;;4.10;;
21101;SDS011;10709;49.006;12.100;2023-11-21T01:14:03;7.63;;;3.83;;
21101;SDS011;10709;49.006;12.100;2023-11-21T01:16:30;8.97;;;3.60;;
21101;SDS011;10709;49.006;12.100;2023-11-21T01:18:59;7.43;;;3.67;;
21101;SDS011;10709;49.006;12.100;2023-11-21T01:21:25;7.57;;;3.70;;
21101;SDS011;10709;49.006;12.100;2023-11-21T01:23:52;9.73;;;3.70;;
21101;SDS011;10709;49.006;12.100;2023-11-21T01:26:20;7.43;;;3.60;;
21101;SDS011;10709;49.006;12.100;2023-11-21T01:28:47;8.00;;;4.20;;
21101;SDS011;10709;49.006;12.100;2023-11-21T01:31:17;8.77;;;3.73;;
21101;SDS011;10709;49.006;12.100;2023-11-21T01:33:44;9.87;;;3.77;;
21101;SDS011;10709;49.006;12.100;2023-11-21T01:36:11;10.47;;;4.00;;
21101;SDS011;10709;49.006;12.100;2023-11-21T01:38:38;11.07;;;4.50;;
21101;SDS011;10709;49.006;12.100;2023-11-21T01:41:05;12.13;;;4.00;;
21101;SDS011;10709;49.006;12.100;2023-11-21T01:43:32;9.03;;;3.87;;
21101;SDS011;10709;49.006;12.100;2023-11-21T01:45:59;9.07;;;3.50;;
21101;SDS011;10709;49.006;12.100;2023-11-21T01:48:26;13.97;;;3.90;;
21101;SDS011;10709;49.006;12.100;2023-11-21T01:50:54;7.63;;;3.27;;
21101;SDS011;10709;49.006;12.100;2023-11-21T01:53:20;7.13;;;3.40;;
21101;SDS011;10709;49.006;12.100;2023-11-21T01:55:47;6.63;;;2.87;;
21101;SDS011;10709;49.006;12.100;2023-11-21T01:58:15;5.73;;;2.80;;
21101;SDS011;10709;49.006;12.100;2023-11-21T02:00:42;7.13;;;3.03;;
21101;SDS011;10709;49.006;12.100;2023-11-21T02:03:09;6.20;;;2.80;;
21101;SDS011;10709;49.006;12.100;2023-11-21T02:05:36;6.67;;;2.80;;
21101;SDS011;10709;49.006;12.100;2023-11-21T02:08:03;5.30;;;2.90;;
21101;SDS011;10709;49.006;12.100;2023-11-21T02:10:30;5.97;;;2.87;;
21101;SDS011;10709;49.006;12.100;2023-11-21T02:12:57;5.53;;;2.93;;
21101;SDS011;10709;49.006;12.100;2023-11-21T02:15:24;7.87;;;2.90;;
21101;SDS011;10709;49.006;12.100;2023-11-21T02:17:55;7.93;;;3.00;;
21101;SDS011;10709;49.006;12.100;2023-11-21T02:20:24;4.97;;;2.77;;
21101;SDS011;10709;49.006;12.100;2023-11-21T02:22:53;5.53;;;2.67;;
21101;SDS011;10709;49.006;12.100;2023-11-21T02:25:28;6.40;;;2.80;;
21101;SDS011;10709;49.006;12.100;2023-11-21T02:28:00;5.70;;;2.70;;
21101;SDS011;10709;49.006;12.100;2023-11-21T02:30:28;6.60;;;2.50;;
21101;SDS011;10709;49.006;12.100;2023-11-21T02:32:59;6.57;;;2.70;;
21101;SDS011;10709;49.006;12.100;2023-11-21T02:35:27;6.93;;;2.67;;
21101;SDS011;10709;49.006;12.100;2023-11-21T02:37:54;6.80;;;3.10;;
21101;SDS011;10709;49.006;12.100;2023-11-21T02:40:21;6.23;;;3.00;;
21101;SDS011;10709;49.006;12.100;2023-11-21T02:42:48;7.07;;;3.00;;
21101;SDS011;10709;49.006;12.100;2023-11-21T02:45:14;5.13;;;3.00;;
21101;SDS011;10709;49.006;12.100;2023-11-21T02:47:51;6.53;;;2.50;;
21101;SDS011;10709;49.006;12.100;2023-11-21T02:50:19;6.60;;;2.67;;
21101;SDS011;10709;49.006;12.100;2023-11-21T02:52:48;6.93;;;2.93;;
21101;SDS011;10709;49.006;12.100;2023-11-21T02:55:15;6.93;;;2.57;;
21101;SDS011;10709;49.006;12.100;2023-11-21T02:57:42;5.87;;;2.83;;
21101;SDS011;10709;49.006;12.100;2023-11-21T03:00:08;4.27;;;2.50;;
21101;SDS011;10709;49.006;12.100;2023-11-21T03:02:41;5.03;;;2.23;;
21101;SDS011;10709;49.006;12.100;2023-11-21T03:05:13;6.63;;;2.53;;
21101;SDS011;10709;49.006;12.100;2023-11-21T03:07:40;4.97;;;2.40;;
21101;SDS011;10709;49.006;12.100;2023-11-21T03:10:07;7.07;;;2.60;;
21101;SDS011;10709;49.006;12.100;2023-11-21T03:12:41;4.40;;;2.60;;
21101;SDS011;10709;49.006;12.100;2023-11-21T03:15:08;4.60;;;2.60;;
21101;SDS011;10709;49.006;12.100;2023-11-21T03:17:37;5.73;;;2.30;;
21101;SDS011;10709;49.006;12.100;2023-11-21T03:20:06;5.60;;;2.80;;
21101;SDS011;10709;49.006;12.100;2023-11-21T03:22:37;4.70;;;2.70;;
21101;SDS011;10709;49.006;12.100;2023-11-21T03:25:05;4.73;;;2.50;;
21101;SDS011;10709;49.006;12.100;2023-11-21T03:27:32;4.67;;;2.40;;
21101;SDS011;10709;49.006;12.100;2023-11-21T03:30:00;6.03;;;2.30;;
21101;SDS011;10709;49.006;12.100;2023-11-21T03:32:29;5.83;;;2.20;;
21101;SDS011;10709;49.006;12.100;2023-11-21T03:34:59;4.20;;;2.17;;
21101;SDS011;10709;49.006;12.100;2023-11-21T03:37:26;5.70;;;2.17;;
21101;SDS011;10709;49.006;12.100;2023-11-21T03:39:55;4.63;;;2.23;;
21101;SDS011;10709;49.006;12.100;2023-11-21T03:42:23;3.67;;;2.10;;
21101;SDS011;10709;49.006;12.100;2023-11-21T03:44:52;4.03;;;2.27;;
21101;SDS011;10709;49.006;12.100;2023-11-21T03:47:20;7.17;;;3.20;;
21101;SDS011;10709;49.006;12.100;2023-11-21T03:49:46;8.20;;;3.33;;
21101;SDS011;10709;49.006;12.100;2023-11-21T03:52:13;8.33;;;3.83;;
21101;SDS011;10709;49.006;12.100;2023-11-21T03:54:40;7.27;;;3.40;;
21101;SDS011;10709;49.006;12.100;2023-11-21T03:57:07;7.83;;;3.70;;
21101;SDS011;10709;49.006;12.100;2023-11-21T03:59:33;7.93;;;3.80;;
21101;SDS011;10709;49.006;12.100;2023-11-21T04:02:00;11.50;;;4.03;;
21101;SDS011;10709;49.006;12.100;2023-11-21T04:04:27;9.63;;;3.60;;
21101;SDS011;10709;49.006;12.100;2023-11-21T04:06:54;5.90;;;3.17;;
21101;SDS011;10709;49.006;12.100;2023-11-21T04:09:20;8.40;;;3.60;;
21101;SDS011;10709;49.006;12.100;2023-11-21T04:11:47;11.33;;;4.33;;
21101;SDS011;10709;49.006;12.100;2023-11-21T04:14:15;9.00;;;4.03;;
21101;SDS011;10709;49.006;12.100;2023-11-21T04:16:41;9.03;;;3.87;;
21101;SDS011;10709;49.006;12.100;2023-11-21T04:19:08;7.37;;;3.70;;
21101;SDS011;10709;49.006;12.100;2023-11-21T04:21:37;7.13;;;3.77;;
21101;SDS011;10709;49.006;12.100;2023-11-21T04:24:04;6.50;;;3.90;;
21101;SDS011;10709;49.006;12.100;2023-11-21T04:26:33;7.83;;;3.90;;
21101;SDS011;10709;49.006;12.100;2023-11-21T04:29:00;7.07;;;4.50;;
21101;SDS011;10709;49.006;12.100;2023-11-21T04:31:26;9.60;;;5.20;;
21101;SDS011;10709;49.006;12.100;2023-11-21T04:33:53;12.27;;;5.60;;
21101;SDS011;10709;49.006;12.100;2023-11-21T04:36:20;11.73;;;5.20;;
21101;SDS011;10709;49.006;12.100;2023-11-21T04:38:48;9.57;;;5.20;;
21101;SDS011;10709;49.006;12.100;2023-11-21T04:41:15;8.83;;;5.20;;
21101;SDS011;10709;49.006;12.100;2023-11-21T04:43:42;6.77;;;4.70;;
21101;SDS011;10709;49.006;12.100;2023-11-21T04:46:10;8.37;;;4.93;;
21101;SDS011;10709;49.006;12.100;2023-11-21T04:48:37;10.40;;;4.83;;
21101;SDS011;10709;49.006;12.100;2023-11-21T04:51:05;9.70;;;5.03;;
21101;SDS011;10709;49.006;12.100;2023-11-21T04:53:33;13.00;;;5.47;;
21101;SDS011;10709;49.006;12.100;2023-11-21T04:56:02;11.23;;;5.73;;
21101;SDS011;10709;49.006;12.100;2023-11-21T04:58:31;12.47;;;6.00;;
21101;SDS011;10709;49.006;12.100;2023-11-21T05:00:57;12.97;;;6.17;;
21101;SDS011;10709;49.006;12.100;2023-11-21T05:03:25;7.77;;;4.90;;
21101;SDS011;10709;49.006;12.100;2023-11-21T05:05:52;10.03;;;5.83;;
21101;SDS011;10709;49.006;12.100;2023-11-21T05:08:19;8.83;;;5.07;;
21101;SDS011;10709;49.006;12.100;2023-11-21T05:10:50;10.17;;;5.90;;
21101;SDS011;10709;49.006;12.100;2023-11-21T05:13:18;9.77;;;5.43;;
21101;SDS011;10709;49.006;12.100;2023-11-21T05:15:46;9.87;;;5.53;;
21101;SDS011;10709;49.006;12.100;2023-11-21T05:18:13;11.00;;;5.17;;
21101;SDS011;10709;49.006;12.100;2023-11-21T05:20:40;8.03;;;5.17;;
21101;SDS011;10709;49.006;12.100;2023-11-21T05:23:09;10.13;;;5.40;;
21101;SDS011;10709;49.006;12.100;2023-11-21T05:25:35;11.53;;;5.87;;
21101;SDS011;10709;49.006;12.100;2023-11-21T05:28:06;9.20;;;5.30;;
21101;SDS011;10709;49.006;12.100;2023-11-21T05:30:33;10.37;;;6.00;;
21101;SDS011;10709;49.006;12.100;2023-11-21T05:32:59;9.30;;;5.53;;
21101;SDS011;10709;49.006;12.100;2023-11-21T05:35:26;10.70;;;5.50;;
21101;SDS011;10709;49.006;12.100;2023-11-21T05:37:55;10.70;;;5.63;;
21101;SDS011;10709;49.006;12.100;2023-11-21T05:40:23;11.73;;;6.00;;
21101;SDS011;10709;49.006;12.100;2023-11-21T05:42:55;9.27;;;5.50;;
21101;SDS011;10709;49.006;12.100;2023-11-21T05:45:22;10.53;;;5.93;;
21101;SDS011;10709;49.006;12.100;2023-11-21T05:47:49;10.47;;;5.53;;
21101;SDS011;10709;49.006;12.100;2023-11-21T05:50:18;13.80;;;6.83;;
21101;SDS011;10709;49.006;12.100;2023-11-21T05:52:45;10.03;;;6.00;;
21101;SDS011;10709;49.006;12.100;2023-11-21T05:55:13;9.83;;;5.70;;
21101;SDS011;10709;49.006;12.100;2023-11-21T05:57:41;10.23;;;5.73;;
21101;SDS011;10709;49.006;12.100;2023-11-21T06:00:10;9.93;;;5.63;;
21101;SDS011;10709;49.006;12.100;2023-11-21T06:13:56;8.80;;;5.17;;
21101;SDS011;10709;49.006;12.100;2023-11-21T06:16:23;11.10;;;5.60;;
21101;SDS011;10709;49.006;12.100;2023-11-21T06:18:50;8.40;;;5.73;;
21101;SDS011;10709;49.006;12.100;2023-11-21T06:21:17;7.13;;;4.80;;
21101;SDS011;10709;49.006;12.100;2023-11-21T06:23:44;8.37;;;5.67;;
21101;SDS011;10709;49.006;12.100;2023-11-21T06:26:11;9.30;;;5.70;;
21101;SDS011;10709;49.006;12.100;2023-11-21T06:28:39;10.03;;;6.30;;
21101;SDS011;10709;49.006;12.100;2023-11-21T06:31:07;8.87;;;6.10;;
21101;SDS011;10709;49.006;12.100;2023-11-21T06:33:34;10.73;;;5.90;;
21101;SDS011;10709;49.006;12.100;2023-11-21T06:36:01;10.90;;;6.63;;
21101;SDS011;10709;49.006;12.100;2023-11-21T06:38:30;8.63;;;6.03;;
21101;SDS011;10709;49.006;12.100;2023-11-21T06:40:59;10.03;;;6.50;;
21101;SDS011;10709;49.006;12.100;2023-11-21T06:43:28;10.80;;;6.33;;
21101;SDS011;10709;49.006;12.100;2023-11-21T06:45:56;10.27;;;6.50;;
21101;SDS011;10709;49.006;12.100;2023-11-21T06:48:23;11.77;;;7.13;;
21101;SDS011;10709;49.006;12.100;2023-11-21T06:50:53;12.23;;;7.43;;
21101;SDS011;10709;49.006;12.100;2023-11-21T06:53:20;8.80;;;7.07;;
21101;SDS011;10709;49.006;12.100;2023-11-21T06:55:48;13.60;;;7.80;;
21101;SDS011;10709;49.006;12.100;2023-11-21T06:58:15;12.07;;;7.60;;
21101;SDS011;10709;49.006;12.100;2023-11-21T07:00:44;11.97;;;7.60;;
21101;SDS011;10709;49.006;12.100;2023-11-21T07:03:13;11.20;;;7.13;;
21101;SDS011;10709;49.006;12.100;2023-11-21T07:05:40;11.80;;;6.83;;
21101;SDS011;10709;49.006;12.100;2023-11-21T07:08:07;9.63;;;6.87;;
21101;SDS011;10709;49.006;12.100;2023-11-21T07:10:33;9.80;;;6.73;;
21101;SDS011;10709;49.006;12.100;2023-11-21T07:13:01;12.83;;;6.73;;
21101;SDS011;10709;49.006;12.100;2023-11-21T07:15:27;12.27;;;7.40;;
21101;SDS011;10709;49.006;12.100;2023-11-21T07:17:54;13.80;;;7.07;;
21101;SDS011;10709;49.006;12.100;2023-11-21T07:20:21;9.37;;;6.77;;
21101;SDS011;10709;49.006;12.100;2023-11-21T07:22:47;13.00;;;7.00;;
21101;SDS011;10709;49.006;12.100;2023-11-21T07:25:14;14.53;;;8.10;;
21101;SDS011;10709;49.006;12.100;2023-11-21T07:27:41;12.37;;;7.43;;
21101;SDS011;10709;49.006;12.100;2023-11-21T07:30:07;15.10;;;7.20;;
21101;SDS011;10709;49.006;12.100;2023-11-21T07:32:36;10.00;;;6.90;;
21101;SDS011;10709;49.006;12.100;2023-11-21T07:35:06;10.80;;;6.37;;
21101;SDS011;10709;49.006;12.100;2023-11-21T07:37:38;10.50;;;6.67;;
21101;SDS011;10709;49.006;12.100;2023-11-21T07:40:05;9.10;;;5.83;;
21101;SDS011;10709;49.006;12.100;2023-11-21T07:42:34;12.70;;;6.93;;
21101;SDS011;10709;49.006;12.100;2023-11-21T07:45:01;11.23;;;6.73;;
21101;SDS011;10709;49.006;12.100;2023-11-21T07:47:29;12.20;;;7.40;;
21101;SDS011;10709;49.006;12.100;2023-11-21T07:49:56;14.53;;;7.60;;
21101;SDS011;10709;49.006;12.100;2023-11-21T07:52:22;15.43;;;7.63;;
21101;SDS011;10709;49.006;12.100;2023-11-21T07:54:49;14.20;;;7.67;;
21101;SDS011;10709;49.006;12.100;2023-11-21T07:57:17;10.93;;;7.07;;
21101;SDS011;10709;49.006;12.100;2023-11-21T07:59:44;13.63;;;8.63;;
21101;SDS011;10709;49.006;12.100;2023-11-21T08:02:11;12.83;;;7.60;;
21101;SDS011;10709;49.006;12.100;2023-11-21T08:04:37;10.83;;;6.93;;
21101;SDS011;10709;49.006;12.100;2023-11-21T08:07:05;15.63;;;7.90;;
21101;SDS011;10709;49.006;12.100;2023-11-21T08:09:34;14.13;;;8.23;;
21101;SDS011;10709;49.006;12.100;2023-11-21T08:12:00;13.63;;;7.20;;
21101;SDS011;10709;49.006;12.100;2023-11-21T08:14:29;11.20;;;7.17;;
21101;SDS011;10709;49.006;12.100;2023-11-21T08:16:58;14.77;;;7.93;;
21101;SDS011;10709;49.006;12.100;2023-11-21T08:19:25;17.60;;;7.40;;
21101;SDS011;10709;49.006;12.100;2023-11-21T08:21:53;14.00;;;7.17;;
21101;SDS011;10709;49.006;12.100;2023-11-21T08:24:21;14.47;;;7.73;;
21101;SDS011;10709;49.006;12.100;2023-11-21T08:26:48;14.50;;;8.47;;
21101;SDS011;10709;49.006;12.100;2023-11-21T08:29:16;14.73;;;7.57;;
21101;SDS011;10709;49.006;12.100;2023-11-21T08:31:42;17.23;;;8.40;;
21101;SDS011;10709;49.006;12.100;2023-11-21T08:34:11;11.63;;;7.07;;
21101;SDS011;10709;49.006;12.100;2023-11-21T08:36:41;14.90;;;7.53;;
21101;SDS011;10709;49.006;12.100;2023-11-21T08:39:09;11.63;;;7.10;;
21101;SDS011;10709;49.006;12.100;2023-11-21T08:41:36;13.73;;;7.50;;
21101;SDS011;10709;49.006;12.100;2023-11-21T08:44:02;15.80;;;7.70;;
21101;SDS011;10709;49.006;12.100;2023-11-21T08:46:33;12.67;;;7.60;;
21101;SDS011;10709;49.006;12.100;2023-11-21T08:49:01;12.30;;;7.60;;
21101;SDS011;10709;49.006;12.100;2023-11-21T08:51:27;8.57;;;6.47;;
21101;SDS011;10709;49.006;12.100;2023-11-21T08:53:56;10.70;;;6.67;;
21101;SDS011;10709;49.006;12.100;2023-11-21T08:56:25;49.43;;;7.73;;
21101;SDS011;10709;49.006;12.100;2023-11-21T08:58:52;54.43;;;7.33;;
21101;SDS011;10709;49.006;12.100;2023-11-21T09:01:19;9.23;;;5.87;;
21101;SDS011;10709;49.006;12.100;2023-11-21T09:03:46;8.27;;;5.50;;
21101;SDS011;10709;49.006;12.100;2023-11-21T09:06:14;11.00;;;6.23;;
21101;SDS011;10709;49.006;12.100;2023-11-21T09:08:41;10.73;;;6.23;;
21101;SDS011;10709;49.006;12.100;2023-11-21T09:11:09;9.30;;;5.80;;
21101;SDS011;10709;49.006;12.100;2023-11-21T09:18:11;10.83;;;5.50;;
21101;SDS011;10709;49.006;12.100;2023-11-21T09:22:07;8.47;;;4.70;;
21101;SDS011;10709;49.006;12.100;2023-11-21T09:25:49;7.80;;;5.37;;
21101;SDS011;10709;49.006;12.100;2023-11-21T09:37:12;10.67;;;5.50;;
21101;SDS011;10709;49.006;12.100;2023-11-21T09:39:40;6.97;;;5.00;;
21101;SDS011;10709;49.006;12.100;2023-11-21T09:42:11;6.67;;;4.67;;
21101;SDS011;10709;49.006;12.100;2023-11-21T09:44:50;9.23;;;5.70;;
21101;SDS011;10709;49.006;12.100;2023-11-21T09:47:32;5.13;;;4.33;;
21101;SDS011;10709;49.006;12.100;2023-11-21T09:50:06;8.47;;;5.00;;
21101;SDS011;10709;49.006;12.100;2023-11-21T09:55:38;5.03;;;3.43;;
21101;SDS011;10709;49.006;12.100;2023-11-21T09:58:08;6.20;;;4.17;;
21101;SDS011;10709;49.006;12.100;2023-11-21T10:00:42;6.03;;;4.13;;
21101;SDS011;10709;49.006;12.100;2023-11-21T10:03:12;5.23;;;3.83;;
21101;SDS011;10709;49.006;12.100;2023-11-21T10:05:40;5.63;;;3.97;;
21101;SDS011;10709;49.006;12.100;2023-11-21T10:08:08;7.77;;;4.00;;
21101;SDS011;10709;49.006;12.100;2023-11-21T10:10:37;4.47;;;3.60;;
21101;SDS011;10709;49.006;12.100;2023-11-21T10:13:10;5.57;;;3.80;;
21101;SDS011;10709;49.006;12.100;2023-11-21T10:15:39;5.23;;;3.93;;
21101;SDS011;10709;49.006;12.100;2023-11-21T10:18:11;5.73;;;3.93;;
21101;SDS011;10709;49.006;12.100;2023-11-21T10:20:38;6.10;;;4.50;;
21101;SDS011;10709;49.006;12.100;2023-11-21T10:23:04;6.27;;;4.50;;
21101;SDS011;10709;49.006;12.100;2023-11-21T10:25:34;6.40;;;4.63;;
21101;SDS011;10709;49.006;12.100;2023-11-21T10:28:03;4.83;;;4.17;;
21101;SDS011;10709;49.006;12.100;2023-11-21T10:30:37;7.67;;;4.40;;
21101;SDS011;10709;49.006;12.100;2023-11-21T10:33:05;6.73;;;4.30;;
21101;SDS011;10709;49.006;12.100;2023-11-21T10:35:47;6.23;;;4.03;;
21101;SDS011;10709;49.006;12.100;2023-11-21T10:38:17;5.60;;;4.10;;
21101;SDS011;10709;49.006;12.100;2023-11-21T10:40:46;5.30;;;4.00;;
21101;SDS011;10709;49.006;12.100;2023-11-21T10:43:13;4.30;;;3.63;;
21101;SDS011;10709;49.006;12.100;2023-11-21T10:45:42;7.13;;;4.73;;
21101;SDS011;10709;49.006;12.100;2023-11-21T10:48:09;6.27;;;4.33;;
21101;SDS011;10709;49.006;12.100;2023-11-21T10:50:40;5.17;;;3.53;;
21101;SDS011;10709;49.006;12.100;2023-11-21T10:53:06;4.17;;;3.07;;
21101;SDS011;10709;49.006;12.100;2023-11-21T10:55:34;5.23;;;3.43;;
21101;SDS011;10709;49.006;12.100;2023-11-21T10:58:01;5.73;;;3.00;;
21101;SDS011;10709;49.006;12.100;2023-11-21T11:00:34;7.20;;;2.80;;
21101;SDS011;10709;49.006;12.100;2023-11-21T11:03:01;3.27;;;2.60;;
21101;SDS011;10709;49.006;12.100;2023-11-21T11:05:29;3.60;;;2.87;;
21101;SDS011;10709;49.006;12.100;2023-11-21T11:08:00;3.13;;;2.60;;
21101;SDS011;10709;49.006;12.100;2023-11-21T11:10:31;3.63;;;3.23;;
21101;SDS011;10709;49.006;12.100;2023-11-21T11:13:01;3.33;;;2.50;;
21101;SDS011;10709;49.006;12.100;2023-11-21T11:15:28;4.13;;;2.50;;
21101;SDS011;10709;49.006;12.100;2023-11-21T11:17:55;3.03;;;2.73;;
21101;SDS011;10709;49.006;12.100;2023-11-21T11:20:27;3.43;;;2.50;;
21101;SDS011;10709;49.006;12.100;2023-11-21T11:28:47;3.03;;;2.57;;
21101;SDS011;10709;49.006;12.100;2023-11-21T11:31:39;3.50;;;2.10;;
21101;SDS011;10709;49.006;12.100;2023-11-21T11:34:36;5.37;;;2.97;;
21101;SDS011;10709;49.006;12.100;2023-11-21T11:37:12;4.73;;;2.30;;
21101;SDS011;10709;49.006;12.100;2023-11-21T11:39:42;4.77;;;2.90;;
21101;SDS011;10709;49.006;12.100;2023-11-21T11:42:13;3.57;;;2.80;;
21101;SDS011;10709;49.006;12.100;2023-11-21T11:47:20;3.50;;;2.40;;
21101;SDS011;10709;49.006;12.100;2023-11-21T11:50:01;3.97;;;2.23;;
21101;SDS011;10709;49.006;12.100;2023-11-21T11:52:45;2.83;;;1.90;;
21101;SDS011;10709;49.006;12.100;2023-11-21T11:55:14;4.80;;;2.17;;
21101;SDS011;10709;49.006;12.100;2023-11-21T11:57:47;3.23;;;2.20;;
21101;SDS011;10709;49.006;12.100;2023-11-21T12:00:23;2.50;;;2.17;;
21101;SDS011;10709;49.006;12.100;2023-11-21T12:03:04;2.87;;;2.27;;
21101;SDS011;10709;49.006;12.100;2023-11-21T12:05:34;3.87;;;2.70;;
21101;SDS011;10709;49.006;12.100;2023-11-21T12:08:06;3.37;;;2.37;;
21101;SDS011;10709;49.006;12.100;2023-11-21T12:10:34;3.00;;;2.20;;
21101;SDS011;10709;49.006;12.100;2023-11-21T12:13:05;3.03;;;2.50;;
21101;SDS011;10709;49.006;12.100;2023-11-21T12:15:34;4.20;;;3.57;;
21101;SDS011;10709;49.006;12.100;2023-11-21T12:18:01;5.97;;;3.40;;
21101;SDS011;10709;49.006;12.100;2023-11-21T12:20:30;4.63;;;3.50;;
21101;SDS011;10709;49.006;12.100;2023-11-21T12:22:58;3.47;;;2.73;;
21101;SDS011;10709;49.006;12.100;2023-11-21T12:25:29;4.47;;;3.10;;
21101;SDS011;10709;49.006;12.100;2023-11-21T12:28:01;4.43;;;2.57;;
21101;SDS011;10709;49.006;12.100;2023-11-21T12:30:30;3.10;;;2.47;;
21101;SDS011;10709;49.006;12.100;2023-11-21T12:32:59;2.90;;;2.60;;
21101;SDS011;10709;49.006;12.100;2023-11-21T12:35:27;4.47;;;3.10;;
21101;SDS011;10709;49.006;12.100;2023-11-21T12:37:56;4.03;;;2.90;;
21101;SDS011;10709;49.006;12.100;2023-11-21T12:40:26;3.77;;;3.00;;
21101;SDS011;10709;49.006;12.100;2023-11-21T12:42:55;4.10;;;2.80;;
21101;SDS011;10709;49.006;12.100;2023-11-21T12:45:25;6.17;;;3.37;;
21101;SDS011;10709;49.006;12.100;2023-11-21T12:47:54;3.90;;;3.10;;
21101;SDS011;10709;49.006;12.100;2023-11-21T12:50:28;7.13;;;4.13;;
21101;SDS011;10709;49.006;12.100;2023-11-21T12:52:59;5.27;;;3.97;;
21101;SDS011;10709;49.006;12.100;2023-11-21T12:55:32;4.93;;;3.37;;
21101;SDS011;10709;49.006;12.100;2023-11-21T12:58:05;3.90;;;2.97;;
21101;SDS011;10709;49.006;12.100;2023-11-21T13:03:14;4.90;;;3.63;;
21101;SDS011;10709;49.006;12.100;2023-11-21T13:05:47;4.93;;;3.20;;
21101;SDS011;10709;49.006;12.100;2023-11-21T13:08:21;4.23;;;3.00;;
21101;SDS011;10709;49.006;12.100;2023-11-21T13:10:54;7.70;;;3.43;;
21101;SDS011;10709;49.006;12.100;2023-11-21T13:13:24;6.57;;;3.90;;
21101;SDS011;10709;49.006;12.100;2023-11-21T13:15:53;6.67;;;3.60;;
21101;SDS011;10709;49.006;12.100;2023-11-21T13:18:27;4.63;;;3.30;;
21101;SDS011;10709;49.006;12.100;2023-11-21T13:20:55;6.97;;;3.50;;
21101;SDS011;10709;49.006;12.100;2023-11-21T13:23:24;4.03;;;3.00;;
21101;SDS011;10709;49.006;12.100;2023-11-21T13:25:52;2.43;;;2.13;;
21101;SDS011;10709;49.006;12.100;2023-11-21T13:28:30;4.07;;;2.60;;
21101;SDS011;10709;49.006;12.100;2023-11-21T13:31:00;3.73;;;2.40;;
21101;SDS011;10709;49.006;12.100;2023-11-21T13:33:37;5.87;;;3.10;;
21101;SDS011;10709;49.006;12.100;2023-11-21T13:36:05;6.00;;;3.50;;
21101;SDS011;10709;49.006;12.100;2023-11-21T13:38:37;4.70;;;3.13;;
21101;SDS011;10709;49.006;12.100;2023-11-21T13:41:08;3.90;;;2.90;;
21101;SDS011;10709;49.006;12.100;2023-11-21T13:43:38;5.13;;;3.40;;
21101;SDS011;10709;49.006;12.100;2023-11-21T13:46:05;5.30;;;3.70;;
21101;SDS011;10709;49.006;12.100;2023-11-21T13:48:41;6.13;;;3.40;;
21101;SDS011;10709;49.006;12.100;2023-11-21T13:51:09;4.57;;;3.43;;
21101;SDS011;10709;49.006;12.100;2023-11-21T13:53:47;5.00;;;3.67;;
21101;SDS011;10709;49.006;12.100;2023-11-21T13:56:17;4.23;;;3.43;;
21101;SDS011;10709;49.006;12.100;2023-11-21T13:58:48;5.17;;;3.07;;
21101;SDS011;10709;49.006;12.100;2023-11-21T14:01:19;3.13;;;2.70;;
21101;SDS011;10709;49.006;12.100;2023-11-21T14:03:59;3.43;;;2.90;;
21101;SDS011;10709;49.006;12.100;2023-11-21T14:06:49;4.03;;;2.90;;
21101;SDS011;10709;49.006;12.100;2023-11-21T14:09:19;4.47;;;2.90;;
21101;SDS011;10709;49.006;12.100;2023-11-21T14:12:02;3.60;;;3.10;;
21101;SDS011;10709;49.006;12.100;2023-11-21T14:14:32;5.67;;;2.97;;
21101;SDS011;10709;49.006;12.100;2023-11-21T14:17:00;2.90;;;2.60;;
21101;SDS011;10709;49.006;12.100;2023-11-21T14:19:30;5.27;;;2.80;;
21101;SDS011;10709;49.006;12.100;2023-11-21T14:21:59;4.73;;;2.90;;
21101;SDS011;10709;49.006;12.100;2023-11-21T14:24:27;5.93;;;2.77;;
21101;SDS011;10709;49.006;12.100;2023-11-21T14:26:55;6.00;;;3.60;;
21101;SDS011;10709;49.006;12.100;2023-11-21T14:29:22;4.67;;;3.50;;
21101;SDS011;10709;49.006;12.100;2023-11-21T14:31:50;5.17;;;3.40;;
21101;SDS011;10709;49.006;12.100;2023-11-21T14:34:20;3.90;;;3.07;;
21101;SDS011;10709;49.006;12.100;2023-11-21T14:36:49;5.90;;;4.00;;
21101;SDS011;10709;49.006;12.100;2023-11-21T14:39:16;6.60;;;4.30;;
21101;SDS011;10709;49.006;12.100;2023-11-21T14:42:03;6.27;;;4.13;;
21101;SDS011;10709;49.006;12.100;2023-11-21T14:44:30;4.80;;;3.63;;
21101;SDS011;10709;49.006;12.100;2023-11-21T14:47:04;5.60;;;3.37;;
21101;SDS011;10709;49.006;12.100;2023-11-21T14:49:34;6.70;;;4.07;;
21101;SDS011;10709;49.006;12.100;2023-11-21T14:52:16;6.43;;;3.70;;
21101;SDS011;10709;49.006;12.100;2023-11-21T14:55:02;6.20;;;3.77;;
21101;SDS011;10709;49.006;12.100;2023-11-21T14:57:50;8.87;;;4.90;;
21101;SDS011;10709;49.006;12.100;2023-11-21T15:00:18;7.80;;;4.70;;
21101;SDS011;10709;49.006;12.100;2023-11-21T15:03:01;8.20;;;4.47;;
21101;SDS011;10709;49.006;12.100;2023-11-21T15:05:29;8.40;;;4.63;;
21101;SDS011;10709;49.006;12.100;2023-11-21T15:07:57;5.57;;;4.27;;
21101;SDS011;10709;49.006;12.100;2023-11-21T15:10:40;5.33;;;4.00;;
21101;SDS011;10709;49.006;12.100;2023-11-21T15:13:15;4.83;;;3.67;;
21101;SDS011;10709;49.006;12.100;2023-11-21T15:15:42;7.53;;;4.13;;
21101;SDS011;10709;49.006;12.100;2023-11-21T15:18:09;5.57;;;3.63;;
21101;SDS011;10709;49.006;12.100;2023-11-21T15:20:41;6.13;;;4.40;;
21101;SDS011;10709;49.006;12.100;2023-11-21T15:23:09;5.23;;;4.27;;